sensor_id;sensor_type;location;lat;lon;timestamp;P1;durP1;ratioP1;P2;durP2;ratioP2
13566;SDS011;6855;48.112;11.298;2022-11-18T00:01:05;0.80;;;0.53;;
13566;SDS011;6855;48.112;11.298;2022-11-18T00:03:32;3.50;;;0.67;;
13566;SDS011;6855;48.112;11.298;2022-11-18T00:06:00;1.53;;;0.57;;
13566;SDS011;6855;48.112;11.298;2022-11-18T00:08:28;0.80;;;0.43;;
13566;SDS011;6855;48.112;11.298;2022-11-18T00:10:56;0.60;;;0.50;;
13566;SDS011;6855;48.112;11.298;2022-11-18T00:13:23;0.70;;;0.53;;
13566;SDS011;6855;48.112;11.298;2022-11-18T00:16:08;0.50;;;0.50;;
13566;SDS011;6855;48.112;11.298;2022-11-18T00:18:36;0.67;;;0.53;;
13566;SDS011;6855;48.112;11.298;2022-11-18T00:21:04;0.50;;;0.40;;
13566;SDS011;6855;48.112;11.298;2022-11-18T00:23:33;1.37;;;0.50;;
13566;SDS011;6855;48.112;11.298;2022-11-18T00:26:01;1.80;;;0.50;;
13566;SDS011;6855;48.112;11.298;2022-11-18T00:28:28;1.40;;;0.60;;
13566;SDS011;6855;48.112;11.298;2022-11-18T00:30:59;2.57;;;0.70;;
13566;SDS011;6855;48.112;11.298;2022-11-18T00:33:28;1.40;;;0.60;;
13566;SDS011;6855;48.112;11.298;2022-11-18T00:35:55;1.40;;;0.70;;
13566;SDS011;6855;48.112;11.298;2022-11-18T00:38:22;0.83;;;0.60;;
13566;SDS011;6855;48.112;11.298;2022-11-18T00:40:58;1.13;;;0.70;;
13566;SDS011;6855;48.112;11.298;2022-11-18T00:43:25;1.00;;;0.50;;
13566;SDS011;6855;48.112;11.298;2022-11-18T00:45:51;0.90;;;0.50;;
13566;SDS011;6855;48.112;11.298;2022-11-18T00:48:19;0.93;;;0.60;;
13566;SDS011;6855;48.112;11.298;2022-11-18T00:50:47;1.23;;;0.60;;
13566;SDS011;6855;48.112;11.298;2022-11-18T00:53:14;2.67;;;0.70;;
13566;SDS011;6855;48.112;11.298;2022-11-18T00:55:41;1.77;;;0.77;;
13566;SDS011;6855;48.112;11.298;2022-11-18T00:58:10;0.80;;;0.60;;
13566;SDS011;6855;48.112;11.298;2022-11-18T01:00:38;0.73;;;0.50;;
13566;SDS011;6855;48.112;11.298;2022-11-18T01:03:05;0.87;;;0.53;;
13566;SDS011;6855;48.112;11.298;2022-11-18T01:05:33;1.73;;;0.67;;
13566;SDS011;6855;48.112;11.298;2022-11-18T01:08:00;0.50;;;0.40;;
13566;SDS011;6855;48.112;11.298;2022-11-18T01:10:27;1.03;;;0.50;;
13566;SDS011;6855;48.112;11.298;2022-11-18T01:12:54;0.80;;;0.70;;
13566;SDS011;6855;48.112;11.298;2022-11-18T01:15:41;0.70;;;0.50;;
13566;SDS011;6855;48.112;11.298;2022-11-18T01:18:09;4.90;;;0.73;;
13566;SDS011;6855;48.112;11.298;2022-11-18T01:20:36;3.00;;;1.33;;
13566;SDS011;6855;48.112;11.298;2022-11-18T01:23:03;1.40;;;1.30;;
13566;SDS011;6855;48.112;11.298;2022-11-18T01:25:31;1.30;;;1.00;;
13566;SDS011;6855;48.112;11.298;2022-11-18T01:27:58;0.97;;;0.70;;
13566;SDS011;6855;48.112;11.298;2022-11-18T01:30:25;0.60;;;0.57;;
13566;SDS011;6855;48.112;11.298;2022-11-18T01:32:54;1.23;;;1.00;;
13566;SDS011;6855;48.112;11.298;2022-11-18T01:35:21;0.77;;;0.70;;
13566;SDS011;6855;48.112;11.298;2022-11-18T01:37:48;0.97;;;0.80;;
13566;SDS011;6855;48.112;11.298;2022-11-18T01:40:15;1.93;;;0.60;;
13566;SDS011;6855;48.112;11.298;2022-11-18T01:42:42;1.83;;;0.93;;
13566;SDS011;6855;48.112;11.298;2022-11-18T01:45:20;1.17;;;0.70;;
13566;SDS011;6855;48.112;11.298;2022-11-18T01:47:51;1.50;;;0.80;;
13566;SDS011;6855;48.112;11.298;2022-11-18T01:50:21;0.60;;;0.60;;
13566;SDS011;6855;48.112;11.298;2022-11-18T01:52:50;0.90;;;0.77;;
13566;SDS011;6855;48.112;11.298;2022-11-18T01:55:20;0.80;;;0.80;;
13566;SDS011;6855;48.112;11.298;2022-11-18T01:57:49;1.03;;;0.70;;
13566;SDS011;6855;48.112;11.298;2022-11-18T02:00:19;0.73;;;0.60;;
13566;SDS011;6855;48.112;11.298;2022-11-18T02:02:46;1.03;;;0.60;;
13566;SDS011;6855;48.112;11.298;2022-11-18T02:05:13;0.60;;;0.50;;
13566;SDS011;6855;48.112;11.298;2022-11-18T02:07:42;0.50;;;0.50;;
13566;SDS011;6855;48.112;11.298;2022-11-18T02:10:15;1.10;;;0.60;;
13566;SDS011;6855;48.112;11.298;2022-11-18T02:12:44;1.73;;;0.57;;
13566;SDS011;6855;48.112;11.298;2022-11-18T02:15:11;1.63;;;0.63;;
13566;SDS011;6855;48.112;11.298;2022-11-18T02:17:42;0.60;;;0.50;;
13566;SDS011;6855;48.112;11.298;2022-11-18T02:23:03;0.80;;;0.60;;
13566;SDS011;6855;48.112;11.298;2022-11-18T02:25:38;2.37;;;0.67;;
13566;SDS011;6855;48.112;11.298;2022-11-18T02:28:14;1.27;;;1.03;;
13566;SDS011;6855;48.112;11.298;2022-11-18T02:30:52;0.90;;;0.70;;
13566;SDS011;6855;48.112;11.298;2022-11-18T02:33:21;1.83;;;0.67;;
13566;SDS011;6855;48.112;11.298;2022-11-18T02:35:51;0.57;;;0.50;;
13566;SDS011;6855;48.112;11.298;2022-11-18T02:38:21;0.60;;;0.47;;
13566;SDS011;6855;48.112;11.298;2022-11-18T02:40:51;0.73;;;0.40;;
13566;SDS011;6855;48.112;11.298;2022-11-18T02:43:20;2.80;;;0.60;;
13566;SDS011;6855;48.112;11.298;2022-11-18T02:45:51;0.60;;;0.50;;
13566;SDS011;6855;48.112;11.298;2022-11-18T02:48:21;0.70;;;0.60;;
13566;SDS011;6855;48.112;11.298;2022-11-18T02:50:49;2.50;;;0.60;;
13566;SDS011;6855;48.112;11.298;2022-11-18T02:53:17;1.20;;;0.70;;
13566;SDS011;6855;48.112;11.298;2022-11-18T02:55:45;0.70;;;0.50;;
13566;SDS011;6855;48.112;11.298;2022-11-18T02:58:13;0.60;;;0.50;;
13566;SDS011;6855;48.112;11.298;2022-11-18T03:00:41;0.60;;;0.53;;
13566;SDS011;6855;48.112;11.298;2022-11-18T03:03:22;0.40;;;0.40;;
13566;SDS011;6855;48.112;11.298;2022-11-18T03:05:51;2.20;;;0.60;;
13566;SDS011;6855;48.112;11.298;2022-11-18T03:08:20;1.10;;;0.60;;
13566;SDS011;6855;48.112;11.298;2022-11-18T03:10:50;1.10;;;0.50;;
13566;SDS011;6855;48.112;11.298;2022-11-18T03:13:19;0.70;;;0.50;;
13566;SDS011;6855;48.112;11.298;2022-11-18T03:15:51;0.50;;;0.40;;
13566;SDS011;6855;48.112;11.298;2022-11-18T03:18:24;0.50;;;0.40;;
13566;SDS011;6855;48.112;11.298;2022-11-18T03:20:54;8.33;;;0.70;;
13566;SDS011;6855;48.112;11.298;2022-11-18T03:23:24;0.50;;;0.47;;
13566;SDS011;6855;48.112;11.298;2022-11-18T03:25:54;0.50;;;0.40;;
13566;SDS011;6855;48.112;11.298;2022-11-18T03:28:23;1.33;;;0.53;;
13566;SDS011;6855;48.112;11.298;2022-11-18T03:30:53;0.83;;;0.60;;
13566;SDS011;6855;48.112;11.298;2022-11-18T03:33:26;1.23;;;0.60;;
13566;SDS011;6855;48.112;11.298;2022-11-18T03:35:56;0.60;;;0.50;;
13566;SDS011;6855;48.112;11.298;2022-11-18T03:38:25;0.57;;;0.50;;
13566;SDS011;6855;48.112;11.298;2022-11-18T03:40:54;2.17;;;0.50;;
13566;SDS011;6855;48.112;11.298;2022-11-18T03:43:24;0.70;;;0.53;;
13566;SDS011;6855;48.112;11.298;2022-11-18T03:45:53;0.60;;;0.50;;
13566;SDS011;6855;48.112;11.298;2022-11-18T03:48:22;0.50;;;0.43;;
13566;SDS011;6855;48.112;11.298;2022-11-18T03:50:53;0.60;;;0.60;;
13566;SDS011;6855;48.112;11.298;2022-11-18T03:53:22;0.50;;;0.47;;
13566;SDS011;6855;48.112;11.298;2022-11-18T03:55:51;1.60;;;0.67;;
13566;SDS011;6855;48.112;11.298;2022-11-18T03:58:20;0.43;;;0.40;;
13566;SDS011;6855;48.112;11.298;2022-11-18T04:00:51;0.70;;;0.50;;
13566;SDS011;6855;48.112;11.298;2022-11-18T04:03:18;0.60;;;0.50;;
13566;SDS011;6855;48.112;11.298;2022-11-18T04:05:45;2.30;;;0.50;;
13566;SDS011;6855;48.112;11.298;2022-11-18T04:08:17;1.17;;;0.50;;
13566;SDS011;6855;48.112;11.298;2022-11-18T04:10:47;1.73;;;0.43;;
13566;SDS011;6855;48.112;11.298;2022-11-18T04:13:17;1.07;;;0.60;;
13566;SDS011;6855;48.112;11.298;2022-11-18T04:15:45;1.73;;;0.60;;
13566;SDS011;6855;48.112;11.298;2022-11-18T04:18:12;1.83;;;0.93;;
13566;SDS011;6855;48.112;11.298;2022-11-18T04:20:39;1.73;;;0.70;;
13566;SDS011;6855;48.112;11.298;2022-11-18T04:23:06;3.00;;;0.70;;
13566;SDS011;6855;48.112;11.298;2022-11-18T04:25:35;1.53;;;0.70;;
13566;SDS011;6855;48.112;11.298;2022-11-18T04:28:02;1.90;;;0.80;;
13566;SDS011;6855;48.112;11.298;2022-11-18T04:30:30;3.07;;;0.90;;
13566;SDS011;6855;48.112;11.298;2022-11-18T04:32:57;2.63;;;0.60;;
13566;SDS011;6855;48.112;11.298;2022-11-18T04:35:24;0.70;;;0.50;;
13566;SDS011;6855;48.112;11.298;2022-11-18T04:37:52;0.60;;;0.50;;
13566;SDS011;6855;48.112;11.298;2022-11-18T04:40:19;1.43;;;0.50;;
13566;SDS011;6855;48.112;11.298;2022-11-18T04:42:48;0.57;;;0.50;;
13566;SDS011;6855;48.112;11.298;2022-11-18T04:45:15;0.60;;;0.50;;
13566;SDS011;6855;48.112;11.298;2022-11-18T04:47:42;0.70;;;0.50;;
13566;SDS011;6855;48.112;11.298;2022-11-18T04:50:09;0.70;;;0.50;;
13566;SDS011;6855;48.112;11.298;2022-11-18T04:52:36;6.13;;;0.67;;
13566;SDS011;6855;48.112;11.298;2022-11-18T04:55:04;0.50;;;0.50;;
13566;SDS011;6855;48.112;11.298;2022-11-18T04:57:31;0.90;;;0.50;;
13566;SDS011;6855;48.112;11.298;2022-11-18T04:59:59;1.33;;;0.50;;
13566;SDS011;6855;48.112;11.298;2022-11-18T05:02:27;3.90;;;0.50;;
13566;SDS011;6855;48.112;11.298;2022-11-18T05:04:54;0.50;;;0.43;;
13566;SDS011;6855;48.112;11.298;2022-11-18T05:07:21;0.50;;;0.40;;
13566;SDS011;6855;48.112;11.298;2022-11-18T05:09:48;0.70;;;0.40;;
13566;SDS011;6855;48.112;11.298;2022-11-18T05:12:15;1.10;;;0.50;;
13566;SDS011;6855;48.112;11.298;2022-11-18T05:15:01;0.60;;;0.50;;
13566;SDS011;6855;48.112;11.298;2022-11-18T05:17:28;0.50;;;0.40;;
13566;SDS011;6855;48.112;11.298;2022-11-18T05:19:55;0.60;;;0.50;;
13566;SDS011;6855;48.112;11.298;2022-11-18T05:22:22;0.53;;;0.50;;
13566;SDS011;6855;48.112;11.298;2022-11-18T05:24:50;1.53;;;0.80;;
13566;SDS011;6855;48.112;11.298;2022-11-18T05:27:17;2.00;;;0.67;;
13566;SDS011;6855;48.112;11.298;2022-11-18T05:29:44;1.23;;;0.70;;
13566;SDS011;6855;48.112;11.298;2022-11-18T05:32:12;2.20;;;0.83;;
13566;SDS011;6855;48.112;11.298;2022-11-18T05:34:40;1.73;;;0.77;;
13566;SDS011;6855;48.112;11.298;2022-11-18T05:37:07;2.30;;;1.17;;
13566;SDS011;6855;48.112;11.298;2022-11-18T05:39:35;2.17;;;1.10;;
13566;SDS011;6855;48.112;11.298;2022-11-18T05:42:02;2.00;;;0.67;;
13566;SDS011;6855;48.112;11.298;2022-11-18T05:44:47;0.70;;;0.50;;
13566;SDS011;6855;48.112;11.298;2022-11-18T05:47:17;0.80;;;0.60;;
13566;SDS011;6855;48.112;11.298;2022-11-18T05:49:44;0.63;;;0.60;;
13566;SDS011;6855;48.112;11.298;2022-11-18T05:52:11;2.43;;;0.80;;
13566;SDS011;6855;48.112;11.298;2022-11-18T05:54:38;11.13;;;0.90;;
13566;SDS011;6855;48.112;11.298;2022-11-18T05:57:08;3.77;;;1.10;;
13566;SDS011;6855;48.112;11.298;2022-11-18T05:59:35;2.37;;;0.90;;
13566;SDS011;6855;48.112;11.298;2022-11-18T06:02:02;1.87;;;0.70;;
13566;SDS011;6855;48.112;11.298;2022-11-18T06:04:35;1.75;;;0.80;;
13566;SDS011;6855;48.112;11.298;2022-11-18T06:07:05;2.25;;;1.00;;
13566;SDS011;6855;48.112;11.298;2022-11-18T06:09:34;1.90;;;0.90;;
13566;SDS011;6855;48.112;11.298;2022-11-18T06:12:02;0.80;;;0.50;;
13566;SDS011;6855;48.112;11.298;2022-11-18T06:14:32;0.70;;;0.50;;
13566;SDS011;6855;48.112;11.298;2022-11-18T06:17:01;0.80;;;0.57;;
13566;SDS011;6855;48.112;11.298;2022-11-18T06:19:30;0.60;;;0.40;;
13566;SDS011;6855;48.112;11.298;2022-11-18T06:21:59;0.50;;;0.40;;
13566;SDS011;6855;48.112;11.298;2022-11-18T06:24:27;0.70;;;0.40;;
13566;SDS011;6855;48.112;11.298;2022-11-18T06:26:54;1.77;;;0.53;;
13566;SDS011;6855;48.112;11.298;2022-11-18T06:29:22;0.50;;;0.40;;
13566;SDS011;6855;48.112;11.298;2022-11-18T06:31:49;0.77;;;0.50;;
13566;SDS011;6855;48.112;11.298;2022-11-18T06:34:16;0.80;;;0.50;;
13566;SDS011;6855;48.112;11.298;2022-11-18T06:36:43;1.17;;;0.50;;
13566;SDS011;6855;48.112;11.298;2022-11-18T06:39:12;0.83;;;0.60;;
13566;SDS011;6855;48.112;11.298;2022-11-18T06:41:39;0.50;;;0.40;;
13566;SDS011;6855;48.112;11.298;2022-11-18T06:44:06;0.50;;;0.50;;
13566;SDS011;6855;48.112;11.298;2022-11-18T06:46:32;0.70;;;0.50;;
13566;SDS011;6855;48.112;11.298;2022-11-18T06:49:17;0.60;;;0.50;;
13566;SDS011;6855;48.112;11.298;2022-11-18T06:51:44;0.40;;;0.40;;
13566;SDS011;6855;48.112;11.298;2022-11-18T06:54:12;1.07;;;0.50;;
13566;SDS011;6855;48.112;11.298;2022-11-18T06:56:40;0.77;;;0.60;;
13566;SDS011;6855;48.112;11.298;2022-11-18T06:59:07;0.73;;;0.50;;
13566;SDS011;6855;48.112;11.298;2022-11-18T07:01:34;0.50;;;0.50;;
13566;SDS011;6855;48.112;11.298;2022-11-18T07:04:02;0.50;;;0.40;;
13566;SDS011;6855;48.112;11.298;2022-11-18T07:06:30;0.80;;;0.50;;
13566;SDS011;6855;48.112;11.298;2022-11-18T07:08:58;1.73;;;0.53;;
13566;SDS011;6855;48.112;11.298;2022-11-18T07:11:27;0.63;;;0.40;;
13566;SDS011;6855;48.112;11.298;2022-11-18T07:13:55;0.60;;;0.50;;
13566;SDS011;6855;48.112;11.298;2022-11-18T07:16:22;0.60;;;0.50;;
13566;SDS011;6855;48.112;11.298;2022-11-18T07:18:50;1.73;;;0.70;;
13566;SDS011;6855;48.112;11.298;2022-11-18T07:21:18;0.70;;;0.57;;
13566;SDS011;6855;48.112;11.298;2022-11-18T07:23:46;1.50;;;0.60;;
13566;SDS011;6855;48.112;11.298;2022-11-18T07:26:13;0.80;;;0.53;;
13566;SDS011;6855;48.112;11.298;2022-11-18T07:28:42;0.83;;;0.60;;
13566;SDS011;6855;48.112;11.298;2022-11-18T07:31:10;0.50;;;0.50;;
13566;SDS011;6855;48.112;11.298;2022-11-18T07:33:38;1.00;;;0.70;;
13566;SDS011;6855;48.112;11.298;2022-11-18T07:36:07;0.60;;;0.50;;
13566;SDS011;6855;48.112;11.298;2022-11-18T07:38:34;0.77;;;0.70;;
13566;SDS011;6855;48.112;11.298;2022-11-18T07:41:02;1.60;;;0.70;;
13566;SDS011;6855;48.112;11.298;2022-11-18T07:43:30;0.60;;;0.50;;
13566;SDS011;6855;48.112;11.298;2022-11-18T07:45:58;0.70;;;0.60;;
13566;SDS011;6855;48.112;11.298;2022-11-18T07:48:33;0.97;;;0.60;;
13566;SDS011;6855;48.112;11.298;2022-11-18T07:51:01;0.60;;;0.60;;
13566;SDS011;6855;48.112;11.298;2022-11-18T07:53:29;0.60;;;0.50;;
13566;SDS011;6855;48.112;11.298;2022-11-18T07:55:56;0.70;;;0.70;;
13566;SDS011;6855;48.112;11.298;2022-11-18T07:58:23;0.90;;;0.50;;
13566;SDS011;6855;48.112;11.298;2022-11-18T08:00:50;0.73;;;0.60;;
13566;SDS011;6855;48.112;11.298;2022-11-18T08:03:19;1.50;;;0.77;;
13566;SDS011;6855;48.112;11.298;2022-11-18T08:05:46;0.90;;;0.70;;
13566;SDS011;6855;48.112;11.298;2022-11-18T08:08:13;0.70;;;0.70;;
13566;SDS011;6855;48.112;11.298;2022-11-18T08:10:40;0.50;;;0.50;;
13566;SDS011;6855;48.112;11.298;2022-11-18T08:13:08;2.77;;;0.50;;
13566;SDS011;6855;48.112;11.298;2022-11-18T08:15:38;0.60;;;0.50;;
13566;SDS011;6855;48.112;11.298;2022-11-18T08:18:05;0.80;;;0.67;;
13566;SDS011;6855;48.112;11.298;2022-11-18T08:20:36;4.33;;;0.60;;
13566;SDS011;6855;48.112;11.298;2022-11-18T08:23:03;0.60;;;0.60;;
13566;SDS011;6855;48.112;11.298;2022-11-18T08:25:30;2.20;;;0.60;;
13566;SDS011;6855;48.112;11.298;2022-11-18T08:27:58;0.60;;;0.50;;
13566;SDS011;6855;48.112;11.298;2022-11-18T08:30:25;0.70;;;0.60;;
13566;SDS011;6855;48.112;11.298;2022-11-18T08:32:52;1.17;;;0.73;;
13566;SDS011;6855;48.112;11.298;2022-11-18T08:35:19;0.73;;;0.60;;
13566;SDS011;6855;48.112;11.298;2022-11-18T08:37:48;0.80;;;0.50;;
13566;SDS011;6855;48.112;11.298;2022-11-18T08:40:15;5.03;;;0.70;;
13566;SDS011;6855;48.112;11.298;2022-11-18T08:42:42;0.77;;;0.57;;
13566;SDS011;6855;48.112;11.298;2022-11-18T08:45:10;1.53;;;0.80;;
13566;SDS011;6855;48.112;11.298;2022-11-18T08:47:37;0.60;;;0.50;;
13566;SDS011;6855;48.112;11.298;2022-11-18T08:50:05;0.80;;;0.63;;
13566;SDS011;6855;48.112;11.298;2022-11-18T08:52:32;2.10;;;0.77;;
13566;SDS011;6855;48.112;11.298;2022-11-18T08:55:01;2.20;;;0.73;;
13566;SDS011;6855;48.112;11.298;2022-11-18T08:57:29;1.00;;;0.67;;
13566;SDS011;6855;48.112;11.298;2022-11-18T08:59:56;1.30;;;0.60;;
13566;SDS011;6855;48.112;11.298;2022-11-18T09:02:24;1.03;;;0.70;;
13566;SDS011;6855;48.112;11.298;2022-11-18T09:04:51;0.77;;;0.60;;
13566;SDS011;6855;48.112;11.298;2022-11-18T09:07:19;1.37;;;0.80;;
13566;SDS011;6855;48.112;11.298;2022-11-18T09:09:46;1.47;;;0.67;;
13566;SDS011;6855;48.112;11.298;2022-11-18T09:12:15;2.77;;;0.70;;
13566;SDS011;6855;48.112;11.298;2022-11-18T09:14:42;2.03;;;1.00;;
13566;SDS011;6855;48.112;11.298;2022-11-18T09:17:09;0.93;;;0.70;;
13566;SDS011;6855;48.112;11.298;2022-11-18T09:19:36;2.87;;;0.70;;
13566;SDS011;6855;48.112;11.298;2022-11-18T09:22:04;1.23;;;0.73;;
13566;SDS011;6855;48.112;11.298;2022-11-18T09:24:31;0.90;;;0.80;;
13566;SDS011;6855;48.112;11.298;2022-11-18T09:27:01;0.73;;;0.70;;
13566;SDS011;6855;48.112;11.298;2022-11-18T09:29:29;0.80;;;0.77;;
13566;SDS011;6855;48.112;11.298;2022-11-18T09:31:57;0.80;;;0.70;;
13566;SDS011;6855;48.112;11.298;2022-11-18T09:34:26;0.80;;;0.70;;
13566;SDS011;6855;48.112;11.298;2022-11-18T09:36:53;0.80;;;0.80;;
13566;SDS011;6855;48.112;11.298;2022-11-18T09:39:20;0.93;;;0.83;;
13566;SDS011;6855;48.112;11.298;2022-11-18T09:41:48;1.00;;;0.70;;
13566;SDS011;6855;48.112;11.298;2022-11-18T09:44:24;1.23;;;0.90;;
13566;SDS011;6855;48.112;11.298;2022-11-18T09:46:58;1.00;;;0.70;;
13566;SDS011;6855;48.112;11.298;2022-11-18T09:49:30;3.03;;;0.97;;
13566;SDS011;6855;48.112;11.298;2022-11-18T09:52:00;1.60;;;0.80;;
13566;SDS011;6855;48.112;11.298;2022-11-18T09:54:29;1.57;;;0.80;;
13566;SDS011;6855;48.112;11.298;2022-11-18T09:56:57;1.07;;;0.90;;
13566;SDS011;6855;48.112;11.298;2022-11-18T09:59:25;1.30;;;0.73;;
13566;SDS011;6855;48.112;11.298;2022-11-18T10:01:53;0.77;;;0.77;;
13566;SDS011;6855;48.112;11.298;2022-11-18T10:04:26;1.23;;;0.90;;
13566;SDS011;6855;48.112;11.298;2022-11-18T10:06:54;0.80;;;0.80;;
13566;SDS011;6855;48.112;11.298;2022-11-18T10:09:25;4.80;;;0.90;;
13566;SDS011;6855;48.112;11.298;2022-11-18T10:12:11;1.20;;;1.10;;
13566;SDS011;6855;48.112;11.298;2022-11-18T10:14:47;1.53;;;1.00;;
13566;SDS011;6855;48.112;11.298;2022-11-18T10:17:20;1.10;;;0.90;;
13566;SDS011;6855;48.112;11.298;2022-11-18T10:19:54;1.77;;;1.20;;
13566;SDS011;6855;48.112;11.298;2022-11-18T10:22:24;2.10;;;1.20;;
13566;SDS011;6855;48.112;11.298;2022-11-18T10:24:52;1.80;;;1.17;;
13566;SDS011;6855;48.112;11.298;2022-11-18T10:27:20;2.23;;;0.80;;
13566;SDS011;6855;48.112;11.298;2022-11-18T10:29:51;0.93;;;0.90;;
13566;SDS011;6855;48.112;11.298;2022-11-18T10:32:18;2.40;;;0.87;;
13566;SDS011;6855;48.112;11.298;2022-11-18T10:34:46;2.77;;;1.03;;
13566;SDS011;6855;48.112;11.298;2022-11-18T10:37:22;3.27;;;1.13;;
13566;SDS011;6855;48.112;11.298;2022-11-18T10:39:50;4.23;;;1.97;;
13566;SDS011;6855;48.112;11.298;2022-11-18T10:42:19;1.47;;;1.07;;
13566;SDS011;6855;48.112;11.298;2022-11-18T10:44:47;1.43;;;1.00;;
13566;SDS011;6855;48.112;11.298;2022-11-18T10:47:18;1.10;;;1.00;;
13566;SDS011;6855;48.112;11.298;2022-11-18T10:49:46;1.77;;;1.30;;
13566;SDS011;6855;48.112;11.298;2022-11-18T10:52:13;1.13;;;0.80;;
13566;SDS011;6855;48.112;11.298;2022-11-18T10:54:42;1.23;;;0.80;;
13566;SDS011;6855;48.112;11.298;2022-11-18T10:57:13;0.80;;;0.70;;
13566;SDS011;6855;48.112;11.298;2022-11-18T10:59:44;1.10;;;0.90;;
13566;SDS011;6855;48.112;11.298;2022-11-18T11:02:14;2.40;;;1.03;;
13566;SDS011;6855;48.112;11.298;2022-11-18T11:04:42;0.90;;;0.80;;
13566;SDS011;6855;48.112;11.298;2022-11-18T11:07:13;1.00;;;0.70;;
13566;SDS011;6855;48.112;11.298;2022-11-18T11:09:42;1.87;;;1.17;;
13566;SDS011;6855;48.112;11.298;2022-11-18T11:12:11;4.63;;;0.90;;
13566;SDS011;6855;48.112;11.298;2022-11-18T11:14:41;2.17;;;1.07;;
13566;SDS011;6855;48.112;11.298;2022-11-18T11:17:12;5.50;;;1.70;;
13566;SDS011;6855;48.112;11.298;2022-11-18T11:19:42;3.97;;;1.37;;
13566;SDS011;6855;48.112;11.298;2022-11-18T11:22:11;2.80;;;1.20;;
13566;SDS011;6855;48.112;11.298;2022-11-18T11:24:38;1.97;;;1.10;;
13566;SDS011;6855;48.112;11.298;2022-11-18T11:27:12;0.80;;;0.73;;
13566;SDS011;6855;48.112;11.298;2022-11-18T11:29:54;1.33;;;0.90;;
13566;SDS011;6855;48.112;11.298;2022-11-18T11:32:25;1.63;;;1.20;;
13566;SDS011;6855;48.112;11.298;2022-11-18T11:34:56;0.90;;;0.90;;
13566;SDS011;6855;48.112;11.298;2022-11-18T11:37:31;9.03;;;1.53;;
13566;SDS011;6855;48.112;11.298;2022-11-18T11:40:11;1.13;;;1.00;;
13566;SDS011;6855;48.112;11.298;2022-11-18T11:42:45;2.57;;;1.13;;
13566;SDS011;6855;48.112;11.298;2022-11-18T11:45:19;2.00;;;1.20;;
13566;SDS011;6855;48.112;11.298;2022-11-18T11:47:55;1.40;;;1.10;;
13566;SDS011;6855;48.112;11.298;2022-11-18T11:50:27;0.87;;;0.87;;
13566;SDS011;6855;48.112;11.298;2022-11-18T11:53:03;1.63;;;1.07;;
13566;SDS011;6855;48.112;11.298;2022-11-18T11:55:32;1.53;;;0.90;;
13566;SDS011;6855;48.112;11.298;2022-11-18T11:58:05;1.17;;;0.60;;
13566;SDS011;6855;48.112;11.298;2022-11-18T12:00:39;1.00;;;0.90;;
13566;SDS011;6855;48.112;11.298;2022-11-18T12:03:13;0.77;;;0.70;;
13566;SDS011;6855;48.112;11.298;2022-11-18T12:05:46;0.60;;;0.60;;
13566;SDS011;6855;48.112;11.298;2022-11-18T12:08:14;0.83;;;0.60;;
13566;SDS011;6855;48.112;11.298;2022-11-18T12:10:43;1.50;;;1.10;;
13566;SDS011;6855;48.112;11.298;2022-11-18T12:13:22;1.37;;;1.20;;
13566;SDS011;6855;48.112;11.298;2022-11-18T12:15:59;1.00;;;0.90;;
13566;SDS011;6855;48.112;11.298;2022-11-18T12:18:29;1.07;;;0.77;;
13566;SDS011;6855;48.112;11.298;2022-11-18T12:20:59;1.17;;;0.80;;
13566;SDS011;6855;48.112;11.298;2022-11-18T12:23:26;1.77;;;1.00;;
13566;SDS011;6855;48.112;11.298;2022-11-18T12:25:58;1.73;;;1.30;;
13566;SDS011;6855;48.112;11.298;2022-11-18T12:28:29;1.80;;;1.43;;
13566;SDS011;6855;48.112;11.298;2022-11-18T12:33:48;2.00;;;0.97;;
13566;SDS011;6855;48.112;11.298;2022-11-18T12:36:23;0.97;;;0.70;;
13566;SDS011;6855;48.112;11.298;2022-11-18T12:38:50;2.07;;;0.90;;
13566;SDS011;6855;48.112;11.298;2022-11-18T14:24:44;3.53;;;1.10;;
13566;SDS011;6855;48.112;11.298;2022-11-18T14:27:35;3.17;;;1.20;;
13566;SDS011;6855;48.112;11.298;2022-11-18T14:35:26;1.73;;;1.30;;
13566;SDS011;6855;48.112;11.298;2022-11-18T14:37:54;1.10;;;0.73;;
13566;SDS011;6855;48.112;11.298;2022-11-18T14:40:22;0.80;;;0.70;;
13566;SDS011;6855;48.112;11.298;2022-11-18T14:42:49;4.20;;;0.87;;
13566;SDS011;6855;48.112;11.298;2022-11-18T14:45:16;1.40;;;1.00;;
13566;SDS011;6855;48.112;11.298;2022-11-18T14:47:43;1.57;;;1.13;;
13566;SDS011;6855;48.112;11.298;2022-11-18T14:50:11;4.77;;;3.10;;
13566;SDS011;6855;48.112;11.298;2022-11-18T14:52:38;9.03;;;2.50;;
13566;SDS011;6855;48.112;11.298;2022-11-18T14:55:05;3.40;;;2.10;;
13566;SDS011;6855;48.112;11.298;2022-11-18T14:57:34;2.20;;;1.80;;
13566;SDS011;6855;48.112;11.298;2022-11-18T15:00:02;3.63;;;1.97;;
13566;SDS011;6855;48.112;11.298;2022-11-18T15:02:29;3.27;;;2.00;;
13566;SDS011;6855;48.112;11.298;2022-11-18T15:04:56;5.07;;;2.70;;
13566;SDS011;6855;48.112;11.298;2022-11-18T15:07:23;1.63;;;1.17;;
13566;SDS011;6855;48.112;11.298;2022-11-18T15:09:51;8.53;;;1.27;;
13566;SDS011;6855;48.112;11.298;2022-11-18T15:12:18;1.33;;;0.70;;
13566;SDS011;6855;48.112;11.298;2022-11-18T15:14:46;0.70;;;0.70;;
13566;SDS011;6855;48.112;11.298;2022-11-18T15:17:14;0.73;;;0.70;;
13566;SDS011;6855;48.112;11.298;2022-11-18T15:19:41;1.80;;;1.20;;
13566;SDS011;6855;48.112;11.298;2022-11-18T15:22:10;1.70;;;1.10;;
13566;SDS011;6855;48.112;11.298;2022-11-18T15:24:37;1.43;;;0.70;;
13566;SDS011;6855;48.112;11.298;2022-11-18T15:27:07;1.30;;;0.70;;
13566;SDS011;6855;48.112;11.298;2022-11-18T15:29:35;1.90;;;0.70;;
13566;SDS011;6855;48.112;11.298;2022-11-18T15:32:05;1.40;;;0.90;;
13566;SDS011;6855;48.112;11.298;2022-11-18T15:34:32;3.23;;;1.33;;
13566;SDS011;6855;48.112;11.298;2022-11-18T15:36:59;5.73;;;2.83;;
13566;SDS011;6855;48.112;11.298;2022-11-18T15:39:27;3.70;;;1.70;;
13566;SDS011;6855;48.112;11.298;2022-11-18T15:41:54;4.30;;;1.73;;
13566;SDS011;6855;48.112;11.298;2022-11-18T15:44:21;3.47;;;1.70;;
13566;SDS011;6855;48.112;11.298;2022-11-18T15:46:48;3.00;;;1.10;;
13566;SDS011;6855;48.112;11.298;2022-11-18T15:49:17;3.50;;;1.10;;
13566;SDS011;6855;48.112;11.298;2022-11-18T15:51:44;1.60;;;1.30;;
13566;SDS011;6855;48.112;11.298;2022-11-18T15:54:11;1.53;;;1.17;;
13566;SDS011;6855;48.112;11.298;2022-11-18T15:56:39;2.00;;;1.00;;
13566;SDS011;6855;48.112;11.298;2022-11-18T15:59:07;4.83;;;1.10;;
13566;SDS011;6855;48.112;11.298;2022-11-18T16:01:35;0.83;;;0.80;;
13566;SDS011;6855;48.112;11.298;2022-11-18T16:04:05;1.60;;;1.40;;
13566;SDS011;6855;48.112;11.298;2022-11-18T16:06:34;2.10;;;1.20;;
13566;SDS011;6855;48.112;11.298;2022-11-18T16:09:02;2.70;;;1.40;;
13566;SDS011;6855;48.112;11.298;2022-11-18T16:11:29;1.80;;;1.30;;
13566;SDS011;6855;48.112;11.298;2022-11-18T16:14:15;2.03;;;1.43;;
13566;SDS011;6855;48.112;11.298;2022-11-18T16:16:43;2.07;;;1.70;;
13566;SDS011;6855;48.112;11.298;2022-11-18T16:19:11;1.73;;;1.43;;
13566;SDS011;6855;48.112;11.298;2022-11-18T16:21:41;1.33;;;1.23;;
13566;SDS011;6855;48.112;11.298;2022-11-18T16:24:10;1.67;;;1.30;;
13566;SDS011;6855;48.112;11.298;2022-11-18T16:26:37;1.23;;;1.13;;
13566;SDS011;6855;48.112;11.298;2022-11-18T16:29:09;4.83;;;1.30;;
13566;SDS011;6855;48.112;11.298;2022-11-18T16:31:40;3.40;;;2.20;;
13566;SDS011;6855;48.112;11.298;2022-11-18T16:34:09;2.03;;;1.10;;
13566;SDS011;6855;48.112;11.298;2022-11-18T16:36:37;1.97;;;1.53;;
13566;SDS011;6855;48.112;11.298;2022-11-18T16:39:07;1.37;;;1.07;;
13566;SDS011;6855;48.112;11.298;2022-11-18T16:41:35;1.87;;;1.20;;
13566;SDS011;6855;48.112;11.298;2022-11-18T16:44:03;2.00;;;1.43;;
13566;SDS011;6855;48.112;11.298;2022-11-18T16:46:31;2.27;;;0.97;;
13566;SDS011;6855;48.112;11.298;2022-11-18T16:48:58;1.77;;;1.10;;
13566;SDS011;6855;48.112;11.298;2022-11-18T16:51:27;0.73;;;0.73;;
13566;SDS011;6855;48.112;11.298;2022-11-18T16:53:55;2.83;;;1.40;;